Time;durP1;ratioP1;P1;durP2;ratioP2;P2;SDS_P1;SDS_P2;PMS_P1;PMS_P2;Temp;Humidity;BMP_temperature;BMP_pressure;BME280_temperature;BME280_humidity;BME280_pressure;Samples;Min_cycle;Max_cycle;Signal;HPM_P1;HPM_P2
2023/12/17 07:31:43;;;;;;;27.75;25.02;;;11.60;99.90;;;;;;4916503;29;20528;-81
2023/12/17 07:34:10;;;;;;;27.10;25.10;;;11.70;99.90;;;;;;4901285;29;20070;-81
2023/12/17 07:36:36;;;;;;;27.02;25.13;;;11.80;99.90;;;;;;4901791;29;20493;-80
2023/12/17 07:39:04;;;;;;;28.02;25.75;;;11.90;99.90;;;;;;4901189;29;20068;-80
2023/12/17 07:41:32;;;;;;;26.08;24.27;;;11.90;99.90;;;;;;4919878;29;20035;-81
2023/12/17 07:43:59;;;;;;;26.77;24.50;;;11.90;99.90;;;;;;4905983;29;20035;-81
2023/12/17 07:46:25;;;;;;;27.48;25.45;;;12.00;99.90;;;;;;4920247;29;20027;-81
2023/12/17 07:48:52;;;;;;;26.98;25.27;;;12.20;99.90;;;;;;4939182;29;20024;-81
2023/12/17 07:51:19;;;;;;;26.60;24.58;;;12.30;99.90;;;;;;4908604;29;20030;-82
2023/12/17 07:53:47;;;;;;;27.27;25.30;;;12.40;99.90;;;;;;4938687;29;20032;-80
2023/12/17 07:56:14;;;;;;;26.63;24.75;;;12.50;99.90;;;;;;4921863;29;20036;-80
2023/12/17 07:58:41;;;;;;;27.50;25.42;;;12.80;99.90;;;;;;4902368;29;20035;-80
2023/12/17 08:01:09;;;;;;;27.17;25.27;;;12.90;99.90;;;;;;4901987;29;20039;-80
2023/12/17 08:03:35;;;;;;;26.95;25.33;;;12.90;99.90;;;;;;4921577;29;20028;-80
2023/12/17 08:06:02;;;;;;;28.13;26.05;;;13.00;99.90;;;;;;4905653;29;20047;-80
2023/12/17 08:08:31;;;;;;;28.73;26.52;;;13.10;99.90;;;;;;4921398;29;20091;-80
2023/12/17 08:10:57;;;;;;;28.38;26.27;;;13.10;99.90;;;;;;4905324;29;20396;-80
2023/12/17 08:13:24;;;;;;;27.77;25.92;;;13.20;99.90;;;;;;4938154;29;20646;-80
2023/12/17 08:15:50;;;;;;;27.23;25.40;;;13.10;99.90;;;;;;4921289;29;20032;-84
2023/12/17 08:18:17;;;;;;;26.70;25.00;;;13.10;99.90;;;;;;4921295;29;20023;-80
2023/12/17 08:20:43;;;;;;;26.88;24.88;;;13.00;99.90;;;;;;4938289;29;20362;-80
2023/12/17 08:23:10;;;;;;;26.75;25.00;;;13.00;99.90;;;;;;4937206;29;20030;-80
2023/12/17 08:25:38;;;;;;;26.33;24.50;;;12.90;99.90;;;;;;4921801;29;20107;-80
2023/12/17 08:28:06;;;;;;;27.25;25.35;;;13.00;99.90;;;;;;4921378;29;20099;-81
2023/12/17 08:30:33;;;;;;;25.60;24.02;;;13.10;99.90;;;;;;4920606;29;20079;-81
2023/12/17 08:32:59;;;;;;;26.30;24.60;;;13.10;99.90;;;;;;4938004;29;20024;-81
2023/12/17 08:35:26;;;;;;;25.83;24.13;;;13.10;99.90;;;;;;4921018;29;20075;-81
2023/12/17 08:37:58;;;;;;;27.98;26.20;;;13.10;99.90;;;;;;4921075;29;20088;-81
2023/12/17 08:40:25;;;;;;;26.50;25.00;;;13.00;99.90;;;;;;4937816;29;20154;-81
2023/12/17 08:42:52;;;;;;;26.83;25.23;;;13.00;99.90;;;;;;4937947;29;20385;-81
2023/12/17 08:45:18;;;;;;;27.05;25.45;;;13.00;99.90;;;;;;4920832;29;20035;-80
2023/12/17 08:47:45;;;;;;;27.90;26.33;;;13.10;99.90;;;;;;4897410;29;20029;-80
2023/12/17 08:50:13;;;;;;;27.73;26.00;;;13.10;99.90;;;;;;4913668;29;20027;-80
2023/12/17 08:52:40;;;;;;;27.05;25.27;;;13.00;99.90;;;;;;4930991;29;20398;-81
2023/12/17 08:55:07;;;;;;;27.77;26.15;;;13.10;99.90;;;;;;4918514;29;20040;-81
2023/12/17 08:57:33;;;;;;;27.40;25.77;;;13.20;99.90;;;;;;4885778;29;20370;-80
2023/12/17 09:00:00;;;;;;;27.70;25.73;;;13.30;99.90;;;;;;4897593;29;20079;-80
2023/12/17 09:02:26;;;;;;;27.50;25.90;;;13.40;99.90;;;;;;4904742;29;20110;-80
2023/12/17 09:04:53;;;;;;;28.05;26.20;;;13.20;99.90;;;;;;4937923;29;20102;-80
2023/12/17 09:07:20;;;;;;;27.27;25.58;;;13.10;99.90;;;;;;4904643;29;20035;-81
2023/12/17 09:09:46;;;;;;;26.80;25.02;;;13.00;99.90;;;;;;4920405;29;20404;-81
2023/12/17 09:12:16;;;;;;;27.20;25.67;;;13.10;99.90;;;;;;4868913;29;20032;-81
2023/12/17 09:14:43;;;;;;;28.65;26.58;;;13.10;99.90;;;;;;4883241;29;20517;-82
2023/12/17 09:17:10;;;;;;;27.67;26.08;;;13.20;99.90;;;;;;4867823;29;20102;-81
2023/12/17 09:19:38;;;;;;;27.80;26.05;;;13.20;99.90;;;;;;4871229;29;20043;-80
2023/12/17 09:22:04;;;;;;;27.60;26.00;;;13.10;99.90;;;;;;4914181;29;20060;-80
2023/12/17 09:24:31;;;;;;;27.73;26.05;;;13.00;99.90;;;;;;4899578;29;20481;-80
2023/12/17 09:26:57;;;;;;;27.70;26.10;;;13.20;99.90;;;;;;4866769;29;20028;-79
2023/12/17 09:29:24;;;;;;;27.15;25.65;;;13.10;99.90;;;;;;4885347;29;20058;-80
2023/12/17 09:31:50;;;;;;;25.83;24.45;;;13.20;99.90;;;;;;4904208;29;20067;-80
2023/12/17 09:34:17;;;;;;;27.27;25.73;;;13.40;99.90;;;;;;4897816;29;20370;-80
2023/12/17 09:36:44;;;;;;;27.48;25.98;;;13.50;99.90;;;;;;4901149;29;20422;-80
2023/12/17 09:39:10;;;;;;;30.08;28.20;;;13.50;99.90;;;;;;4900681;29;20087;-80
2023/12/17 09:41:37;;;;;;;29.58;27.63;;;13.40;99.90;;;;;;4899511;29;20029;-81
2023/12/17 09:44:07;;;;;;;29.27;27.38;;;13.30;99.90;;;;;;4900931;29;20070;-80
2023/12/17 09:46:35;;;;;;;28.83;27.17;;;13.30;99.90;;;;;;4909715;29;20588;-80
2023/12/17 09:49:02;;;;;;;29.80;27.92;;;13.20;99.90;;;;;;4900613;29;20032;-80
2023/12/17 09:51:31;;;;;;;29.40;27.67;;;13.30;99.90;;;;;;4916567;29;20087;-79
2023/12/17 09:53:58;;;;;;;29.65;27.65;;;13.20;99.90;;;;;;4935872;29;20054;-79
2023/12/17 09:56:25;;;;;;;29.88;27.98;;;13.30;99.90;;;;;;4918927;29;20027;-79
2023/12/17 09:58:54;;;;;;;28.63;26.73;;;13.30;99.90;;;;;;4905066;29;20503;-80
2023/12/17 10:01:21;;;;;;;28.92;26.85;;;13.30;99.90;;;;;;4915560;29;20082;-79
2023/12/17 10:03:48;;;;;;;29.73;27.75;;;13.30;99.90;;;;;;4936281;29;20020;-80
2023/12/17 10:06:14;;;;;;;28.38;26.40;;;13.40;99.90;;;;;;4903633;29;20039;-80
2023/12/17 10:08:40;;;;;;;28.20;26.52;;;13.50;99.90;;;;;;4896353;29;20028;-79
2023/12/17 10:11:07;;;;;;;29.48;27.55;;;13.50;99.90;;;;;;4913004;29;20107;-80
2023/12/17 10:13:33;;;;;;;30.40;28.40;;;13.40;99.90;;;;;;4903320;29;20040;-80
2023/12/17 10:16:00;;;;;;;30.70;28.58;;;13.20;99.90;;;;;;4919080;29;20031;-80
2023/12/17 10:18:26;;;;;;;27.90;26.35;;;13.30;99.90;;;;;;4903346;29;20156;-81
2023/12/17 10:20:53;;;;;;;30.48;28.23;;;13.30;99.90;;;;;;4919039;29;20028;-80
2023/12/17 10:23:19;;;;;;;29.23;27.52;;;13.50;99.90;;;;;;4918919;29;20031;-81
2023/12/17 10:25:45;;;;;;;29.17;27.17;;;13.60;99.90;;;;;;4903345;29;20075;-80
2023/12/17 10:28:13;;;;;;;29.17;27.23;;;13.60;99.90;;;;;;4919332;29;20454;-80
2023/12/17 10:30:41;;;;;;;29.35;27.40;;;13.40;99.90;;;;;;4918741;29;20412;-80
2023/12/17 10:33:10;;;;;;;28.45;26.60;;;13.50;99.90;;;;;;4902831;29;20389;-80
2023/12/17 10:35:38;;;;;;;29.17;27.13;;;13.50;99.90;;;;;;4935836;29;20544;-80
2023/12/17 10:38:08;;;;;;;28.98;27.13;;;13.30;99.90;;;;;;4903085;29;20038;-80
2023/12/17 10:40:36;;;;;;;29.25;27.45;;;13.20;99.90;;;;;;4917891;29;20417;-81
2023/12/17 10:43:05;;;;;;;28.23;26.73;;;13.10;99.90;;;;;;4902718;29;20470;-80
2023/12/17 10:45:32;;;;;;;29.58;27.63;;;12.90;99.90;;;;;;4918510;29;20497;-80
2023/12/17 10:48:00;;;;;;;28.38;26.67;;;13.00;99.90;;;;;;4902861;29;20404;-80
2023/12/17 10:50:28;;;;;;;28.67;26.98;;;12.90;99.90;;;;;;4902681;29;20024;-81
2023/12/17 10:52:54;;;;;;;30.13;28.05;;;13.00;99.90;;;;;;4918528;29;20038;-81
2023/12/17 10:55:24;;;;;;;29.27;27.48;;;13.10;99.90;;;;;;4918671;29;20409;-81
2023/12/17 10:57:59;;;;;;;29.38;27.55;;;13.20;99.90;;;;;;4918586;29;20031;-80
2023/12/17 11:00:30;;;;;;;30.00;28.10;;;13.20;99.90;;;;;;4901609;29;20067;-81
2023/12/17 11:03:06;;;;;;;29.30;27.50;;;13.10;99.90;;;;;;4884208;29;20446;-81
2023/12/17 11:05:32;;;;;;;29.48;27.38;;;13.20;99.90;;;;;;4916899;29;20024;-80
2023/12/17 11:07:59;;;;;;;29.38;27.48;;;13.10;99.90;;;;;;4884166;29;20055;-81
2023/12/17 11:10:26;;;;;;;29.58;27.67;;;13.10;99.90;;;;;;4906184;29;20032;-80
2023/12/17 11:12:53;;;;;;;29.50;27.58;;;13.20;99.90;;;;;;4921433;29;20036;-81
2023/12/17 11:15:23;;;;;;;30.20;28.30;;;13.20;99.90;;;;;;4912286;29;20040;-82
2023/12/17 11:17:55;;;;;;;30.20;28.30;;;13.00;99.90;;;;;;4899719;29;20032;-80
2023/12/17 11:20:35;;;;;;;29.92;28.02;;;13.10;99.90;;;;;;4900547;29;20043;-82
2023/12/17 11:23:04;;;;;;;30.02;28.05;;;13.10;99.90;;;;;;4907325;29;20062;-82
2023/12/17 11:25:31;;;;;;;30.30;28.42;;;13.10;99.90;;;;;;4922805;29;20063;-81
2023/12/17 11:27:58;;;;;;;31.02;28.83;;;13.20;99.90;;;;;;4907006;29;20039;-81
2023/12/17 11:30:29;;;;;;;31.40;29.20;;;13.10;99.90;;;;;;4906030;29;20052;-81
2023/12/17 11:33:04;;;;;;;30.08;28.10;;;13.00;99.90;;;;;;4920991;29;20032;-79
2023/12/17 11:35:32;;;;;;;30.58;28.38;;;13.10;99.90;;;;;;4906442;29;20055;-80
2023/12/17 11:37:59;;;;;;;30.20;27.95;;;13.30;99.90;;;;;;4921839;29;20027;-81
2023/12/17 11:40:27;;;;;;;30.42;28.73;;;13.40;99.90;;;;;;4905626;29;20050;-78
2023/12/17 11:43:03;;;;;;;30.55;28.50;;;13.20;99.90;;;;;;4922560;29;20024;-81
2023/12/17 11:45:41;;;;;;;30.40;28.48;;;13.40;99.90;;;;;;4922064;29;20043;-81
2023/12/17 11:48:17;;;;;;;29.95;28.13;;;13.50;99.90;;;;;;4939721;29;20038;-82
2023/12/17 11:50:49;;;;;;;29.50;27.80;;;13.50;99.90;;;;;;4906632;29;20036;-84
2023/12/17 11:53:18;;;;;;;30.30;28.40;;;13.50;99.90;;;;;;4903088;29;20398;-80
2023/12/17 11:55:48;;;;;;;29.90;27.83;;;13.30;99.90;;;;;;4920260;29;20038;-81
2023/12/17 11:58:16;;;;;;;30.27;28.38;;;13.20;99.90;;;;;;4919539;29;20024;-80
2023/12/17 12:01:08;;;;;;;30.75;28.95;;;13.10;99.90;;;;;;4918270;29;20024;-80
2023/12/17 12:03:35;;;;;;;32.10;29.23;;;13.20;99.90;;;;;;4886894;29;20032;-80
2023/12/17 12:06:06;;;;;;;30.77;28.98;;;13.20;99.90;;;;;;4918241;29;20028;-81
2023/12/17 12:08:42;;;;;;;31.60;29.50;;;13.30;99.90;;;;;;4902398;29;20119;-81
2023/12/17 12:11:20;;;;;;;31.73;29.73;;;13.20;99.90;;;;;;4929475;29;20032;-81
2023/12/17 12:13:48;;;;;;;30.95;29.15;;;13.10;99.90;;;;;;4905445;29;20036;-82
2023/12/17 12:16:15;;;;;;;32.33;30.23;;;13.20;99.90;;;;;;4905427;29;20491;-81
2023/12/17 12:18:42;;;;;;;30.98;29.08;;;13.20;99.90;;;;;;4921154;29;20497;-80
2023/12/17 12:21:19;;;;;;;29.85;28.05;;;13.20;99.90;;;;;;4910105;29;20036;-81
2023/12/17 12:23:52;;;;;;;30.60;28.45;;;13.20;99.90;;;;;;4902086;29;20032;-80
2023/12/17 12:26:19;;;;;;;31.13;29.03;;;13.20;99.90;;;;;;4917930;29;20035;-81
2023/12/17 12:28:50;;;;;;;30.65;28.80;;;13.00;99.90;;;;;;4902016;29;20039;-81
2023/12/17 12:31:17;;;;;;;31.35;29.27;;;12.90;99.90;;;;;;4916703;29;20062;-80
2023/12/17 12:33:59;;;;;;;31.30;29.40;;;13.00;99.90;;;;;;4886368;29;20040;-80
2023/12/17 12:36:26;;;;;;;31.30;29.30;;;13.10;99.90;;;;;;4886338;29;20039;-80
2023/12/17 12:39:01;;;;;;;30.25;28.45;;;13.10;99.90;;;;;;4918903;29;20474;-79
2023/12/17 12:41:28;;;;;;;30.42;28.52;;;13.10;99.90;;;;;;4932045;29;20473;-79
2023/12/17 12:43:57;;;;;;;30.08;28.08;;;13.20;99.90;;;;;;4937707;29;20047;-79
2023/12/17 12:46:24;;;;;;;30.25;28.45;;;13.20;99.90;;;;;;4904927;29;20441;-80
2023/12/17 12:48:55;;;;;;;30.33;28.33;;;13.10;99.90;;;;;;4905228;29;20055;-79
2023/12/17 12:51:24;;;;;;;29.65;27.77;;;13.00;99.90;;;;;;4920862;29;20656;-80
2023/12/17 12:53:51;;;;;;;30.02;28.13;;;13.10;99.90;;;;;;4920951;29;20103;-81
2023/12/17 12:56:19;;;;;;;30.23;28.17;;;13.10;99.90;;;;;;4905488;29;20034;-81
2023/12/17 12:59:08;;;;;;;31.27;29.27;;;13.10;99.90;;;;;;4921046;29;20055;-81
2023/12/17 13:01:34;;;;;;;31.05;29.00;;;13.10;99.90;;;;;;4920908;29;20461;-80
2023/12/17 13:04:03;;;;;;;30.20;28.08;;;12.90;99.90;;;;;;4905440;29;20028;-81
2023/12/17 13:06:29;;;;;;;29.77;27.98;;;13.00;99.90;;;;;;4921589;29;20036;-81
2023/12/17 13:08:56;;;;;;;30.02;28.13;;;13.00;99.90;;;;;;4921770;29;20032;-78
2023/12/17 13:11:22;;;;;;;29.92;27.92;;;13.00;99.90;;;;;;4904723;29;20123;-80
2023/12/17 13:13:49;;;;;;;29.90;27.90;;;12.90;99.90;;;;;;4938991;29;20035;-78
2023/12/17 13:16:15;;;;;;;30.23;28.38;;;12.90;99.90;;;;;;4920364;29;20055;-79
2023/12/17 13:18:41;;;;;;;29.95;28.13;;;12.90;99.90;;;;;;4904390;29;20115;-79
2023/12/17 13:21:08;;;;;;;29.90;28.08;;;12.80;99.90;;;;;;4937013;29;20028;-81
2023/12/17 13:23:34;;;;;;;29.27;27.52;;;12.70;99.90;;;;;;4904213;29;20517;-79
2023/12/17 13:26:00;;;;;;;30.52;28.63;;;12.70;99.90;;;;;;4919815;29;20070;-80
2023/12/17 13:28:27;;;;;;;30.60;28.50;;;12.60;99.90;;;;;;4936868;29;20036;-81
2023/12/17 13:30:53;;;;;;;30.38;28.55;;;12.70;99.90;;;;;;4936617;29;20052;-80
2023/12/17 13:33:19;;;;;;;29.95;28.25;;;12.70;99.90;;;;;;4919870;29;20035;-80
2023/12/17 13:35:46;;;;;;;31.17;29.02;;;12.60;99.90;;;;;;4936719;29;20039;-81
2023/12/17 13:38:12;;;;;;;29.98;28.08;;;12.60;99.90;;;;;;4919761;29;20425;-83
2023/12/17 13:40:39;;;;;;;30.52;28.60;;;12.60;99.90;;;;;;4904299;29;20405;-84
2023/12/17 13:43:05;;;;;;;31.05;29.10;;;12.60;99.90;;;;;;4903707;29;20086;-83
2023/12/17 13:45:31;;;;;;;31.05;29.05;;;12.70;99.90;;;;;;4904288;29;20034;-81
2023/12/17 13:47:57;;;;;;;31.50;29.50;;;12.70;99.90;;;;;;4904052;29;20041;-82
2023/12/17 13:50:24;;;;;;;30.58;28.75;;;12.70;99.90;;;;;;4919834;29;20036;-82
2023/12/17 13:52:50;;;;;;;29.65;27.67;;;12.50;99.90;;;;;;4917214;29;20463;-82
2023/12/17 13:55:16;;;;;;;29.73;27.92;;;12.50;99.90;;;;;;4900677;29;20044;-82
2023/12/17 13:57:42;;;;;;;29.70;27.50;;;12.40;99.90;;;;;;4900531;29;20035;-81
2023/12/17 14:00:09;;;;;;;29.63;27.73;;;12.40;99.90;;;;;;4886763;29;20111;-81
2023/12/17 14:02:35;;;;;;;29.92;27.77;;;12.50;99.90;;;;;;4919435;29;20473;-81
2023/12/17 14:05:03;;;;;;;30.08;28.27;;;12.40;99.90;;;;;;4919418;29;20023;-81
2023/12/17 14:07:29;;;;;;;29.48;27.70;;;12.40;99.90;;;;;;4903675;29;20032;-82
2023/12/17 14:09:56;;;;;;;30.73;28.50;;;12.40;99.90;;;;;;4903647;29;20118;-80
2023/12/17 14:12:23;;;;;;;29.05;27.25;;;12.30;99.90;;;;;;4923087;29;20055;-82
2023/12/17 14:14:50;;;;;;;29.45;27.60;;;12.20;99.90;;;;;;4902576;29;20498;-84
2023/12/17 14:17:17;;;;;;;30.27;28.27;;;12.20;99.90;;;;;;4902115;29;20059;-85
2023/12/17 14:19:45;;;;;;;30.85;28.65;;;12.20;99.90;;;;;;4886117;29;20036;-84
2023/12/17 14:22:12;;;;;;;28.58;26.77;;;12.20;99.90;;;;;;4904181;29;20031;-85
2023/12/17 14:24:40;;;;;;;28.13;26.52;;;12.20;99.90;;;;;;4905911;29;20031;-83
2023/12/17 14:27:07;;;;;;;29.00;27.10;;;12.10;99.90;;;;;;4920688;29;20032;-84
2023/12/17 14:29:33;;;;;;;28.52;26.58;;;12.10;99.90;;;;;;4925055;29;20051;-83
2023/12/17 14:32:02;;;;;;;30.02;27.70;;;12.10;99.90;;;;;;4924158;29;20031;-84
2023/12/17 14:34:30;;;;;;;28.95;27.05;;;12.10;99.90;;;;;;4923363;29;20049;-83
2023/12/17 14:36:56;;;;;;;30.30;28.30;;;12.00;99.90;;;;;;4909851;29;20030;-80
2023/12/17 14:39:23;;;;;;;29.88;27.80;;;12.00;99.90;;;;;;4934564;29;20043;-80
2023/12/17 14:41:52;;;;;;;30.02;27.92;;;11.90;99.90;;;;;;4917596;29;20027;-80
2023/12/17 14:44:18;;;;;;;30.40;28.50;;;11.90;99.90;;;;;;4922101;29;20060;-79
2023/12/17 14:46:45;;;;;;;29.65;27.90;;;11.90;99.90;;;;;;4924058;29;20031;-83
2023/12/17 14:49:21;;;;;;;29.98;27.98;;;11.90;99.90;;;;;;4924428;29;20031;-83
2023/12/17 14:51:47;;;;;;;29.85;27.90;;;11.80;99.90;;;;;;4942220;29;20028;-84
2023/12/17 14:54:17;;;;;;;28.60;26.83;;;11.70;99.90;;;;;;4941096;28;20039;-83
2023/12/17 14:56:44;;;;;;;30.20;27.50;;;11.70;99.90;;;;;;4900932;29;20062;-83
2023/12/17 14:59:11;;;;;;;28.63;26.83;;;11.70;99.90;;;;;;4906338;29;20056;-83
2023/12/17 15:01:37;;;;;;;28.95;26.95;;;11.70;99.90;;;;;;4907098;29;20123;-86
2023/12/17 15:04:04;;;;;;;29.45;27.30;;;11.60;99.90;;;;;;4908621;29;20036;-84
2023/12/17 15:06:31;;;;;;;28.50;26.50;;;11.60;99.90;;;;;;4906747;29;20032;-85
2023/12/17 15:09:00;;;;;;;29.35;27.10;;;11.70;99.90;;;;;;4921065;29;20375;-81
2023/12/17 15:11:27;;;;;;;28.45;26.45;;;11.70;99.90;;;;;;4921324;29;20032;-82
2023/12/17 15:13:55;;;;;;;29.52;27.30;;;11.50;99.90;;;;;;4920911;29;20031;-85
2023/12/17 15:16:21;;;;;;;30.88;28.70;;;11.50;99.90;;;;;;4904824;29;20062;-85
2023/12/17 15:18:48;;;;;;;30.55;27.95;;;11.40;99.90;;;;;;4904324;29;20028;-82
2023/12/17 15:21:16;;;;;;;29.67;27.35;;;11.40;99.90;;;;;;4938627;29;20039;-82
2023/12/17 15:23:43;;;;;;;30.17;27.77;;;11.40;99.90;;;;;;4927374;29;20043;-80
2023/12/17 15:26:10;;;;;;;29.40;27.33;;;11.30;99.90;;;;;;4942608;29;20114;-81
2023/12/17 15:28:37;;;;;;;30.52;28.20;;;11.20;99.90;;;;;;4941973;29;20034;-80
2023/12/17 15:31:04;;;;;;;30.45;27.67;;;11.20;99.90;;;;;;4915636;29;20410;-82
2023/12/17 15:33:33;;;;;;;29.42;27.23;;;11.10;99.90;;;;;;4889249;29;20043;-81
2023/12/17 15:35:59;;;;;;;30.40;27.98;;;11.10;99.90;;;;;;4888782;29;20039;-82
2023/12/17 15:38:25;;;;;;;30.42;27.98;;;11.00;99.90;;;;;;4888164;29;20064;-82
2023/12/17 15:40:52;;;;;;;30.58;27.83;;;11.00;99.90;;;;;;4915760;29;20031;-82
2023/12/17 15:43:21;;;;;;;31.35;28.73;;;10.90;99.90;;;;;;4957089;29;20039;-83
2023/12/17 15:45:47;;;;;;;30.92;28.42;;;10.80;99.90;;;;;;4925353;29;20035;-81
2023/12/17 15:48:14;;;;;;;30.92;28.52;;;10.80;99.90;;;;;;4940610;29;20024;-80
2023/12/17 15:50:42;;;;;;;30.23;27.88;;;10.80;99.90;;;;;;4909019;29;20087;-83
2023/12/17 15:53:09;;;;;;;30.88;28.50;;;10.80;99.90;;;;;;4923479;29;20020;-82
2023/12/17 15:55:35;;;;;;;32.05;29.30;;;10.80;99.90;;;;;;4922974;29;20039;-81
2023/12/17 15:58:01;;;;;;;31.90;29.40;;;10.70;99.90;;;;;;4923996;29;20024;-83
2023/12/17 16:00:28;;;;;;;32.28;29.60;;;10.70;99.90;;;;;;4925823;29;20035;-86
2023/12/17 16:02:57;;;;;;;33.65;31.02;;;10.60;99.90;;;;;;4923596;29;20032;-85
2023/12/17 16:05:24;;;;;;;34.17;31.33;;;10.60;99.90;;;;;;4906802;29;20110;-82
2023/12/17 16:07:53;;;;;;;33.58;30.52;;;10.50;99.90;;;;;;4922646;29;20051;-82
2023/12/17 16:10:20;;;;;;;33.13;30.48;;;10.50;99.90;;;;;;4922706;29;20086;-82
2023/12/17 16:12:47;;;;;;;32.60;30.00;;;10.50;99.90;;;;;;4923457;29;20049;-81
2023/12/17 16:15:13;;;;;;;34.33;31.30;;;10.50;99.90;;;;;;4906076;29;20134;-79
2023/12/17 16:17:39;;;;;;;33.90;31.05;;;10.40;99.90;;;;;;4921701;29;20031;-83
2023/12/17 16:20:06;;;;;;;35.35;31.95;;;10.40;99.90;;;;;;4906021;29;20058;-83
2023/12/17 16:22:33;;;;;;;33.78;30.98;;;10.40;99.90;;;;;;4921244;29;20034;-81
2023/12/17 16:25:00;;;;;;;33.72;31.08;;;10.30;99.90;;;;;;4922635;29;20036;-83
2023/12/17 16:27:26;;;;;;;33.42;30.70;;;10.30;99.90;;;;;;4906219;29;20032;-82
2023/12/17 16:29:52;;;;;;;34.15;31.27;;;10.30;99.90;;;;;;4914296;29;20055;-84
2023/12/17 16:32:19;;;;;;;32.97;30.50;;;10.30;99.90;;;;;;4903272;29;20028;-81
2023/12/17 16:34:45;;;;;;;32.92;30.42;;;10.30;99.90;;;;;;4905411;29;20397;-81
2023/12/17 16:37:11;;;;;;;33.33;30.67;;;10.30;99.90;;;;;;4905510;29;20496;-82
2023/12/17 16:39:38;;;;;;;34.65;31.55;;;10.30;99.90;;;;;;4921519;29;20042;-82
2023/12/17 16:42:04;;;;;;;32.75;30.25;;;10.30;99.90;;;;;;4890810;29;20028;-85
2023/12/17 16:44:30;;;;;;;34.20;31.02;;;10.50;99.90;;;;;;4902648;29;20083;-83
2023/12/17 16:46:57;;;;;;;32.67;30.33;;;10.40;99.90;;;;;;4886505;29;20080;-82
2023/12/17 16:49:23;;;;;;;32.13;29.60;;;10.40;99.90;;;;;;4902735;29;20451;-84
2023/12/17 16:51:49;;;;;;;31.45;28.98;;;10.40;99.90;;;;;;4899104;29;20031;-85
2023/12/17 16:54:16;;;;;;;31.65;29.20;;;10.40;99.90;;;;;;4921276;29;20034;-85
2023/12/17 16:56:42;;;;;;;31.25;28.98;;;10.40;99.90;;;;;;4905956;29;20031;-85
2023/12/17 16:59:09;;;;;;;31.98;29.73;;;10.30;99.90;;;;;;4905914;29;20469;-84
2023/12/17 17:01:36;;;;;;;31.80;29.45;;;10.30;99.90;;;;;;4894956;29;20080;-84
2023/12/17 17:04:02;;;;;;;31.55;28.98;;;10.30;99.90;;;;;;4902309;29;20028;-84
2023/12/17 17:06:28;;;;;;;31.20;28.85;;;10.30;99.90;;;;;;4902635;29;20045;-85
2023/12/17 17:08:57;;;;;;;30.40;28.23;;;10.30;99.90;;;;;;4886821;29;20032;-85
2023/12/17 17:11:24;;;;;;;30.05;27.83;;;10.30;99.90;;;;;;4911465;29;20019;-85
2023/12/17 17:13:50;;;;;;;31.77;29.10;;;10.30;99.90;;;;;;4905505;29;20122;-85
2023/12/17 17:16:16;;;;;;;30.77;28.30;;;10.30;99.90;;;;;;4905454;29;20023;-85
2023/12/17 17:18:43;;;;;;;30.48;28.15;;;10.30;99.90;;;;;;4905436;29;20040;-85
2023/12/17 17:21:10;;;;;;;30.10;27.58;;;10.20;99.90;;;;;;4898201;29;20016;-85
2023/12/17 17:23:37;;;;;;;29.52;27.30;;;10.20;99.90;;;;;;4902033;29;20040;-85
2023/12/17 17:26:03;;;;;;;31.33;28.70;;;10.20;99.90;;;;;;4886637;29;20024;-84
2023/12/17 17:28:29;;;;;;;34.95;31.63;;;10.20;99.90;;;;;;4902240;29;20077;-84
2023/12/17 17:30:56;;;;;;;34.55;31.67;;;10.20;99.90;;;;;;4901134;29;20135;-84
2023/12/17 17:33:22;;;;;;;29.95;27.58;;;10.20;99.90;;;;;;4905170;29;20374;-84
2023/12/17 17:35:48;;;;;;;29.70;27.60;;;10.20;99.90;;;;;;4904990;29;20028;-85
2023/12/17 17:38:15;;;;;;;33.53;30.35;;;10.20;99.90;;;;;;4920728;29;20039;-85
2023/12/17 17:40:41;;;;;;;28.90;26.70;;;10.20;99.90;;;;;;4904991;29;20114;-85
2023/12/17 17:43:07;;;;;;;30.38;27.80;;;10.20;99.90;;;;;;4904786;29;20028;-84
2023/12/17 17:45:34;;;;;;;30.65;27.88;;;10.20;99.90;;;;;;4920841;29;20512;-85
2023/12/17 17:48:03;;;;;;;30.60;28.00;;;10.10;99.90;;;;;;4904938;29;20106;-85
2023/12/17 17:50:29;;;;;;;32.80;30.05;;;10.10;99.90;;;;;;4904820;29;20031;-85
2023/12/17 17:52:56;;;;;;;31.27;28.95;;;10.10;99.90;;;;;;4904778;29;20087;-84
2023/12/17 17:55:22;;;;;;;32.45;29.05;;;10.20;99.90;;;;;;4920494;29;20504;-84
2023/12/17 17:57:48;;;;;;;31.17;28.55;;;10.10;99.90;;;;;;4904801;29;20035;-84
2023/12/17 18:00:15;;;;;;;30.98;28.10;;;10.10;99.90;;;;;;4893396;29;20040;-83
2023/12/17 18:02:41;;;;;;;31.95;29.10;;;10.10;99.90;;;;;;4885963;29;20061;-84
2023/12/17 18:05:08;;;;;;;33.10;29.77;;;10.10;99.90;;;;;;4885758;29;20370;-84
2023/12/17 18:07:34;;;;;;;33.50;30.30;;;10.00;99.90;;;;;;4886027;29;20035;-84
2023/12/17 18:10:00;;;;;;;35.38;32.05;;;10.00;99.90;;;;;;4901198;29;20052;-85
2023/12/17 18:12:27;;;;;;;33.40;30.10;;;10.00;99.90;;;;;;4885734;29;20504;-84
2023/12/17 18:14:53;;;;;;;34.25;30.75;;;10.10;99.90;;;;;;4885607;29;20036;-84
2023/12/17 18:17:20;;;;;;;33.85;30.98;;;10.00;99.90;;;;;;4885689;29;20080;-85
2023/12/17 18:19:46;;;;;;;33.50;30.17;;;10.00;99.90;;;;;;4885619;29;20032;-85
2023/12/17 18:22:15;;;;;;;33.83;30.77;;;9.90;99.90;;;;;;4885633;29;20028;-84
2023/12/17 18:24:42;;;;;;;35.90;32.50;;;9.90;99.90;;;;;;4885487;29;20067;-85
2023/12/17 18:27:08;;;;;;;36.47;30.95;;;9.80;99.90;;;;;;4885387;29;20123;-84
2023/12/17 18:29:34;;;;;;;34.75;31.05;;;9.80;99.90;;;;;;4888968;29;20109;-84
2023/12/17 18:32:01;;;;;;;33.13;29.77;;;9.70;99.90;;;;;;4904109;29;20077;-85
2023/12/17 18:34:27;;;;;;;32.20;29.05;;;9.70;99.90;;;;;;4903960;29;20077;-84
2023/12/17 18:36:54;;;;;;;32.65;29.58;;;9.60;99.90;;;;;;4904093;29;20533;-85
2023/12/17 18:39:20;;;;;;;35.83;32.13;;;9.50;99.90;;;;;;4903803;29;20036;-84
2023/12/17 18:41:47;;;;;;;35.58;31.90;;;9.50;99.90;;;;;;4893654;29;20055;-84
2023/12/17 18:44:13;;;;;;;40.75;31.90;;;9.50;99.90;;;;;;4885405;29;20032;-84
2023/12/17 18:46:39;;;;;;;37.10;31.27;;;9.40;99.90;;;;;;4885475;29;20489;-85
2023/12/17 18:49:05;;;;;;;35.13;30.90;;;9.40;99.90;;;;;;4885369;29;20133;-84
2023/12/17 18:51:32;;;;;;;41.15;33.55;;;9.30;99.90;;;;;;4885321;29;20024;-84
2023/12/17 18:53:58;;;;;;;31.48;28.58;;;9.30;99.90;;;;;;4885240;29;20061;-85
2023/12/17 18:56:24;;;;;;;39.00;30.60;;;9.30;99.90;;;;;;4885366;29;20040;-84
2023/12/17 18:58:50;;;;;;;33.65;30.05;;;9.30;99.90;;;;;;4886192;29;20032;-84
2023/12/17 19:01:17;;;;;;;33.97;30.48;;;9.20;99.90;;;;;;4907361;29;20032;-85
2023/12/17 19:03:43;;;;;;;30.77;27.83;;;9.20;99.90;;;;;;4903936;29;20032;-84
2023/12/17 19:06:11;;;;;;;32.25;28.80;;;9.10;99.90;;;;;;4903899;29;20031;-84
2023/12/17 19:08:37;;;;;;;34.35;28.45;;;9.00;99.90;;;;;;4903922;29;20028;-84
2023/12/17 19:11:04;;;;;;;32.42;27.80;;;8.90;99.90;;;;;;4901826;29;20446;-85
2023/12/17 19:13:30;;;;;;;30.75;27.45;;;8.90;99.90;;;;;;4885041;29;20115;-84
2023/12/17 19:15:57;;;;;;;33.25;28.30;;;8.80;99.90;;;;;;4885182;29;20458;-84
2023/12/17 19:18:23;;;;;;;33.47;28.73;;;8.70;99.90;;;;;;4885084;29;20028;-85
2023/12/17 19:20:49;;;;;;;32.33;28.83;;;8.60;99.90;;;;;;4884891;29;20048;-84
2023/12/17 19:23:15;;;;;;;40.90;30.55;;;8.50;99.90;;;;;;4884943;29;20512;-84
2023/12/17 19:25:43;;;;;;;42.28;32.33;;;8.40;99.90;;;;;;4884938;29;20078;-84
2023/12/17 19:28:09;;;;;;;42.75;33.85;;;8.40;99.90;;;;;;4884961;29;20024;-84
2023/12/17 19:30:36;;;;;;;42.55;31.48;;;8.30;99.90;;;;;;4881239;29;20048;-84
2023/12/17 19:33:05;;;;;;;44.33;32.90;;;8.30;99.90;;;;;;4866186;29;20036;-84
2023/12/17 19:35:31;;;;;;;48.25;34.90;;;8.20;99.90;;;;;;4881772;29;20041;-84
2023/12/17 19:37:59;;;;;;;49.60;36.28;;;8.20;99.90;;;;;;4880932;29;20511;-87
2023/12/17 19:40:25;;;;;;;84.45;46.58;;;8.10;99.90;;;;;;4881845;29;20051;-84
2023/12/17 19:42:52;;;;;;;64.88;39.80;;;8.10;99.90;;;;;;4883967;29;20052;-84
2023/12/17 19:45:18;;;;;;;38.88;31.73;;;8.10;99.90;;;;;;4884915;29;20040;-84
2023/12/17 19:47:44;;;;;;;47.00;33.63;;;8.10;99.90;;;;;;4884699;29;20028;-83
2023/12/17 19:50:11;;;;;;;49.13;35.88;;;8.00;99.90;;;;;;4901240;29;20036;-81
2023/12/17 19:52:37;;;;;;;44.92;34.80;;;8.00;99.90;;;;;;4884822;29;20550;-87
2023/12/17 19:55:08;;;;;;;43.17;34.33;;;8.00;99.90;;;;;;4897644;29;20039;-82
2023/12/17 19:57:34;;;;;;;54.38;35.83;;;7.90;99.90;;;;;;4939166;29;20023;-83
2023/12/17 20:00:00;;;;;;;36.35;29.58;;;7.90;99.90;;;;;;4906403;29;20039;-84